Surface observations / UK / EGBB

Quebec | Canada | USA | France | UK | Europe | Elsewhere

Display: Info & Location for EGBB | Help decoding METAR

EGBB BIRMINGHAM AIRPORT -- UK
Raw surface observations for station EGBB
EGBB 252020Z 02005KT 9999 7000E VCSH FEW009 SCT012 OVC019 09/08 Q1017=
EGBB 251950Z 02008KT 9999 7000E VCSH BKN014 OVC022 09/08 Q1017=
EGBB 251920Z 36006KT 9999 BKN016 OVC022 10/07 Q1017=
EGBB 251850Z 36008KT 9999 -SHRA BKN017 BKN022 10/07 Q1017=
EGBB 251820Z 01006KT 9999 BKN018 BKN028 10/07 Q1017=
EGBB 251750Z 01006KT 9999 BKN028 11/07 Q1017=
EGBB 251720Z 01007KT 330V040 9999 SCT021 BKN027 11/07 Q1017=
EGBB 251650Z 01009KT 9999 SCT020 BKN033 11/07 Q1017=
EGBB 251620Z 35008KT 9999 VCSH SCT020 BKN028 11/06 Q1017=
EGBB 251550Z 02008KT 9999 SCT018 OVC028 10/07 Q1017=
EGBB 251520Z 36009KT 9999 BKN018 OVC024 11/07 Q1017=
EGBB 251450Z 02008KT 9999 SCT022 BKN030 11/06 Q1017=
EGBB 251420Z 01009KT 9999 SCT020 BKN028 10/06 Q1017=
EGBB 251350Z 01007KT 9999 BKN030 11/06 Q1018=
EGBB 251320Z 03009KT 360V080 9999 SCT020 BKN030 11/06 Q1018=
EGBB 251250Z 02009KT 9999 SCT018 BKN032 10/06 Q1018=
EGBB 251220Z 36009KT 9999 FEW012 BKN018 BKN025 10/06 Q1018=
EGBB 251150Z 04007KT 360V080 9999 SCT014 BKN024 BKN029 10/07 Q1018=
EGBB 251120Z 02007KT 9999 SCT016 BKN020 09/06 Q1018=
EGBB 251050Z 06007KT 020V080 9999 BKN015 OVC019 10/06 Q1018=
EGBB 251020Z 02008KT 9999 BKN014 OVC021 09/06 Q1019=
EGBB 250950Z 03007KT 360V070 9999 BKN017 OVC026 09/06 Q1019=
EGBB 250920Z 03008KT 9999 BKN018 OVC025 09/06 Q1019=
EGBB 250850Z 02008KT 350V050 9999 BKN022 09/05 Q1019=
EGBB 250820Z 03008KT 9999 SCT021 BKN032 09/05 Q1019=
EGBB 250750Z 02008KT 9999 SCT018 BKN031 09/05 Q1019=
EGBB 250720Z 01007KT 9999 FEW019 OVC032 09/05 Q1019=
EGBB 250650Z 01008KT 9999 FEW020 OVC030 08/04 Q1019=
EGBB 250620Z 01008KT 9999 OVC029 08/04 Q1019=
EGBB 250550Z 01007KT 9999 OVC029 08/04 Q1019=
EGBB 250520Z 02008KT 9999 OVC028 08/04 Q1019=
EGBB 250450Z 02006KT 9999 OVC030 08/04 Q1019=
EGBB 250420Z 02007KT 9999 OVC027 08/03 Q1019=
EGBB 250350Z 01006KT 9999 OVC027 08/03 Q1020=
EGBB 250320Z 02007KT 9999 OVC027 08/03 Q1020=
EGBB 250250Z 04007KT 9999 OVC027 08/03 Q1020=
EGBB 250220Z 05009KT 9999 OVC028 08/03 Q1020=
EGBB 250150Z 03006KT 9999 BKN026 OVC031 08/04 Q1020=
EGBB 250120Z 03005KT 9999 OVC028 08/04 Q1020=
EGBB 250050Z 03005KT 9999 BKN032 07/04 Q1021=
EGBB 250020Z 04005KT 9999 BKN032 08/04 Q1021=
EGBB 242350Z 04005KT 9999 BKN036 08/04 Q1021=
EGBB 242320Z 07007KT 9999 OVC038 09/04 Q1021=
EGBB 242250Z 06009KT 9999 OVC035 09/04 Q1021=
EGBB 242220Z 07009KT 9999 BKN032 OVC037 10/05 Q1021=
EGBB 242150Z 07011KT 9999 SCT033 OVC038 10/05 Q1021=
EGBB 242120Z 07008KT 360V100 9999 SCT032 BKN040 10/06 Q1021=
EGBB 242050Z 06008KT CAVOK 10/06 Q1021=
EGBB 242020Z 06010KT CAVOK 11/06 Q1021=